Time;durP1;ratioP1;P1;durP2;ratioP2;P2;SDS_P1;SDS_P2;PMS_P1;PMS_P2;Temp;Humidity;BMP_temperature;BMP_pressure;BME280_temperature;BME280_humidity;BME280_pressure;Samples;Min_cycle;Max_cycle;Signal;HPM_P1;HPM_P2
2022/08/08 00:02:23;;;;;;;8.52;7.72;;;29.10;52.60;;;;;;4644522;56;21079;-32
2022/08/08 00:08:19;;;;;;;9.20;8.30;;;29.20;52.80;;;;;;4797975;56;21035;-33
2022/08/08 00:13:37;;;;;;;8.50;7.70;;;29.10;52.80;;;;;;4648460;56;21106;-30
2022/08/08 00:18:58;;;;;;;9.00;8.20;;;29.10;52.80;;;;;;4952465;56;21035;-32
2022/08/08 00:24:05;;;;;;;8.60;7.80;;;29.10;52.80;;;;;;4790902;56;21079;-30
2022/08/08 00:29:28;;;;;;;8.55;7.75;;;29.20;52.90;;;;;;4764392;56;21011;-30
2022/08/08 00:37:07;;;;;;;8.68;7.87;;;29.20;52.90;;;;;;4786832;56;21098;-34
2022/08/08 00:46:03;;;;;;;9.10;8.20;;;29.10;52.80;;;;;;4708152;56;21035;-30
2022/08/08 00:51:44;;;;;;;8.77;7.97;;;29.10;53.30;;;;;;4635700;56;21047;-32
2022/08/08 00:57:21;;;;;;;7.82;7.12;;;29.20;52.90;;;;;;4694702;56;21498;-31
2022/08/08 01:05:47;;;;;;;8.20;7.50;;;29.10;52.80;;;;;;4740447;56;21050;-32
2022/08/08 01:12:52;;;;;;;8.45;7.65;;;29.10;52.90;;;;;;4693982;56;21116;-30
2022/08/08 01:21:18;;;;;;;8.90;8.10;;;29.10;52.90;;;;;;4646078;56;21018;-30
2022/08/08 01:31:32;;;;;;;8.75;7.85;;;29.10;52.90;;;;;;4637919;56;21546;-31
2022/08/08 01:37:10;;;;;;;8.20;7.50;;;29.10;52.80;;;;;;4677886;56;21059;-30
2022/08/08 01:42:37;;;;;;;9.45;7.65;;;29.10;53.00;;;;;;4639685;56;21118;-33
2022/08/08 01:48:10;;;;;;;8.20;7.50;;;29.10;52.90;;;;;;5074204;56;21513;-30
2022/08/08 01:54:14;;;;;;;8.95;8.05;;;29.10;52.90;;;;;;4665840;56;21078;-31
2022/08/08 01:59:54;;;;;;;8.17;7.37;;;29.10;52.90;;;;;;4616931;56;21047;-34
2022/08/08 02:06:11;;;;;;;8.65;7.75;;;29.10;52.90;;;;;;4797288;56;21067;-30
2022/08/08 02:11:38;;;;;;;8.60;7.85;;;29.10;53.00;;;;;;4893837;56;21208;-33
2022/08/08 02:18:12;;;;;;;9.05;8.15;;;29.10;53.20;;;;;;5050576;56;21035;-34
2022/08/08 02:23:30;;;;;;;8.20;7.45;;;29.10;53.20;;;;;;4891931;56;21084;-33
2022/08/08 02:30:04;;;;;;;9.02;8.18;;;29.10;53.20;;;;;;4752294;56;21075;-33
2022/08/08 02:35:32;;;;;;;9.13;8.23;;;29.10;53.20;;;;;;4768874;56;21116;-34
2022/08/08 02:41:26;;;;;;;8.63;7.82;;;29.10;52.90;;;;;;4616123;60;21067;-34
2022/08/08 02:51:10;;;;;;;8.30;7.50;;;29.10;53.80;;;;;;4644696;56;21123;-30
2022/08/08 02:56:54;;;;;;;8.15;7.45;;;29.10;53.20;;;;;;4615907;56;21058;-32
2022/08/08 03:02:38;;;;;;;8.88;7.80;;;29.10;53.10;;;;;;4754944;56;21064;-31
2022/08/08 03:13:26;;;;;;;8.63;7.75;;;29.10;52.90;;;;;;4883194;56;21023;-31
2022/08/08 03:20:21;;;;;;;8.55;7.75;;;29.10;53.00;;;;;;4781437;56;21043;-31
2022/08/08 03:25:26;;;;;;;9.07;8.18;;;29.10;53.10;;;;;;4615889;57;21649;-30
2022/08/08 03:30:26;;;;;;;8.35;7.43;;;29.10;53.00;;;;;;4824711;56;21109;-31
2022/08/08 03:35:28;;;;;;;8.40;7.60;;;29.10;52.80;;;;;;4960591;56;21047;-32
2022/08/08 03:40:29;;;;;;;8.48;7.78;;;29.10;53.00;;;;;;4615691;60;21562;-33
2022/08/08 03:45:29;;;;;;;8.05;7.35;;;29.10;52.90;;;;;;4652499;56;21134;-34
2022/08/08 03:50:31;;;;;;;8.07;7.35;;;29.10;52.80;;;;;;4916214;56;21031;-32
2022/08/08 03:55:36;;;;;;;8.10;7.40;;;29.00;52.80;;;;;;4615847;56;21115;-32
2022/08/08 04:00:37;;;;;;;8.80;8.00;;;29.10;52.90;;;;;;4616558;60;21079;-29
2022/08/08 04:05:38;;;;;;;8.23;7.47;;;29.00;52.80;;;;;;4817114;56;21075;-34
2022/08/08 04:10:39;;;;;;;8.55;7.75;;;29.10;53.20;;;;;;4663990;56;21115;-34
2022/08/08 04:15:39;;;;;;;8.23;7.47;;;29.10;52.90;;;;;;4687707;56;21123;-31
2022/08/08 04:20:40;;;;;;;8.27;7.43;;;29.00;53.00;;;;;;4779944;56;21088;-32
2022/08/08 04:25:41;;;;;;;8.07;7.37;;;29.00;52.90;;;;;;4682775;56;21537;-30
2022/08/08 04:30:42;;;;;;;8.68;7.85;;;29.00;52.90;;;;;;4633016;56;21019;-30
2022/08/08 04:35:43;;;;;;;7.93;7.22;;;29.00;52.90;;;;;;4653045;56;21518;-31
2022/08/08 04:40:44;;;;;;;8.27;7.47;;;29.00;53.00;;;;;;4905072;56;21031;-30
2022/08/08 04:45:44;;;;;;;8.52;7.65;;;29.00;52.70;;;;;;4705229;56;21035;-32
2022/08/08 04:50:45;;;;;;;8.55;7.75;;;29.00;53.00;;;;;;4750424;56;21138;-34
2022/08/08 04:55:46;;;;;;;7.97;7.28;;;29.00;52.90;;;;;;4616347;60;21059;-31
2022/08/08 05:00:47;;;;;;;8.55;7.72;;;29.00;52.90;;;;;;4622842;56;21501;-33
2022/08/08 05:05:48;;;;;;;8.18;7.47;;;29.00;52.90;;;;;;4868297;56;21477;-31
2022/08/08 05:10:49;;;;;;;8.88;8.02;;;29.00;52.80;;;;;;5074299;56;21190;-29
2022/08/08 05:15:50;;;;;;;8.98;7.65;;;29.00;52.80;;;;;;5047988;56;21094;-30
2022/08/08 05:20:51;;;;;;;10.50;7.80;;;29.00;52.90;;;;;;4777832;56;21099;-29
2022/08/08 05:25:52;;;;;;;10.02;7.90;;;29.00;52.70;;;;;;4616138;57;21127;-31
2022/08/08 05:30:53;;;;;;;9.07;8.18;;;29.00;52.80;;;;;;4800281;56;21035;-31
2022/08/08 05:35:56;;;;;;;8.02;7.32;;;29.00;52.80;;;;;;4616128;56;21059;-34
2022/08/08 05:40:59;;;;;;;8.48;7.68;;;29.00;52.80;;;;;;4680718;56;21024;-31
2022/08/08 05:46:03;;;;;;;9.95;7.68;;;29.00;52.70;;;;;;4789009;56;21091;-31
2022/08/08 05:51:04;;;;;;;8.85;7.97;;;29.00;52.60;;;;;;4616557;60;21015;-30
2022/08/08 05:56:07;;;;;;;9.82;8.18;;;29.00;52.80;;;;;;4704531;56;21051;-31
2022/08/08 06:01:11;;;;;;;9.45;8.35;;;29.00;52.70;;;;;;4654448;56;21531;-30
2022/08/08 06:06:12;;;;;;;9.02;8.13;;;29.00;52.80;;;;;;4703560;56;21478;-33
2022/08/08 06:11:13;;;;;;;8.63;7.82;;;29.00;52.90;;;;;;4688756;56;21110;-35
2022/08/08 06:16:15;;;;;;;9.20;8.25;;;29.00;52.80;;;;;;4660535;56;21059;-29
2022/08/08 06:21:18;;;;;;;9.48;8.57;;;29.00;52.80;;;;;;4703256;56;21553;-33
2022/08/08 06:26:23;;;;;;;9.32;8.43;;;29.00;52.90;;;;;;4717073;56;21031;-33
2022/08/08 06:31:28;;;;;;;8.95;8.15;;;29.00;53.00;;;;;;4668135;56;21546;-30
2022/08/08 06:36:38;;;;;;;9.13;8.25;;;29.00;52.90;;;;;;4665182;56;21054;-27
2022/08/08 06:41:50;;;;;;;10.10;9.10;;;29.00;52.80;;;;;;4652249;56;21060;-31
2022/08/08 06:46:51;;;;;;;9.73;8.32;;;29.00;53.60;;;;;;4747549;56;21034;-31
2022/08/08 06:51:53;;;;;;;9.38;8.48;;;28.90;52.80;;;;;;4665949;56;21015;-32
2022/08/08 06:56:54;;;;;;;13.88;10.35;;;29.00;52.90;;;;;;4612950;60;21146;-27
2022/08/08 07:02:03;;;;;;;16.98;12.50;;;28.80;52.50;;;;;;4618384;56;21035;-30
2022/08/08 07:07:09;;;;;;;15.65;12.73;;;28.40;51.20;;;;;;4615550;60;21035;-29
2022/08/08 07:12:17;;;;;;;22.08;16.67;;;28.10;50.80;;;;;;4691481;56;21094;-29
2022/08/08 07:17:23;;;;;;;26.52;18.10;;;27.90;50.90;;;;;;4779658;56;21029;-28
